createdAt,value
2018-12-23T00:01:23.925Z,2.90
2018-12-23T00:03:52.396Z,2.37
2018-12-23T00:06:21.009Z,2.40
2018-12-23T00:08:49.584Z,2.30
2018-12-23T00:11:18.090Z,2.33
2018-12-23T00:13:46.628Z,2.00
2018-12-23T00:16:15.148Z,2.50
2018-12-23T00:18:43.752Z,2.17
2018-12-23T00:21:12.230Z,1.80
2018-12-23T00:23:40.757Z,2.27
2018-12-23T00:26:09.249Z,2.40
2018-12-23T00:28:37.713Z,2.33
2018-12-23T00:31:06.201Z,2.03
2018-12-23T00:33:34.712Z,2.10
2018-12-23T00:36:03.235Z,2.17
2018-12-23T00:38:31.780Z,2.07
2018-12-23T00:41:00.337Z,2.33
2018-12-23T00:43:28.835Z,2.20
2018-12-23T00:45:57.379Z,2.60
2018-12-23T00:48:26.527Z,2.70
2018-12-23T00:50:55.013Z,2.70
2018-12-23T00:53:23.543Z,2.83
2018-12-23T00:55:52.209Z,2.70
2018-12-23T00:58:20.706Z,3.40
2018-12-23T01:00:49.271Z,2.80
2018-12-23T01:03:17.727Z,2.57
2018-12-23T01:05:46.423Z,2.90
2018-12-23T01:08:15.053Z,3.33
2018-12-23T01:10:43.610Z,3.20
2018-12-23T01:13:12.144Z,2.97
2018-12-23T01:15:40.701Z,3.00
2018-12-23T01:18:09.337Z,3.00
2018-12-23T01:20:37.832Z,3.20
2018-12-23T01:23:06.316Z,3.57
2018-12-23T01:25:34.885Z,3.70
2018-12-23T01:28:03.469Z,3.70
2018-12-23T01:30:32.011Z,3.87
2018-12-23T01:33:00.509Z,3.70
2018-12-23T01:35:37.039Z,3.13
2018-12-23T01:37:59.759Z,3.30
2018-12-23T01:40:28.342Z,3.47
2018-12-23T01:42:56.839Z,3.40
2018-12-23T01:45:25.367Z,3.20
2018-12-23T01:47:53.845Z,3.40
2018-12-23T01:50:22.376Z,3.43
2018-12-23T01:52:50.912Z,3.50
2018-12-23T01:55:19.476Z,3.40
2018-12-23T01:57:47.994Z,3.57
2018-12-23T02:00:16.632Z,3.70
2018-12-23T02:02:45.112Z,3.30
2018-12-23T02:05:13.685Z,3.13
2018-12-23T02:07:42.223Z,3.90
2018-12-23T02:10:10.713Z,3.50
2018-12-23T02:12:39.227Z,3.27
2018-12-23T02:15:08.043Z,3.70
2018-12-23T02:17:36.588Z,3.63
2018-12-23T02:20:05.518Z,3.83
2018-12-23T02:22:34.098Z,3.80
2018-12-23T02:25:02.572Z,4.00
2018-12-23T02:27:31.168Z,4.27
2018-12-23T02:29:59.718Z,4.10
2018-12-23T02:32:34.715Z,4.13
2018-12-23T02:35:03.304Z,3.90
2018-12-23T02:37:31.824Z,3.70
2018-12-23T02:40:00.338Z,4.20
2018-12-23T02:42:28.877Z,4.30
2018-12-23T02:44:57.362Z,5.80
2018-12-23T02:47:25.834Z,5.57
2018-12-23T02:49:54.317Z,5.03
2018-12-23T02:52:22.888Z,4.67
2018-12-23T02:54:51.344Z,4.20
2018-12-23T02:57:19.891Z,4.67
2018-12-23T02:59:48.432Z,4.53
2018-12-23T03:02:16.920Z,5.00
2018-12-23T03:04:45.449Z,5.37
2018-12-23T03:07:13.931Z,4.73
2018-12-23T03:09:42.426Z,4.90
2018-12-23T03:12:11.161Z,5.13
2018-12-23T03:14:39.670Z,5.23
2018-12-23T03:17:08.136Z,5.93
2018-12-23T03:19:36.622Z,5.10
2018-12-23T03:22:05.240Z,4.10
2018-12-23T03:24:33.741Z,4.00
2018-12-23T03:27:02.340Z,4.77
2018-12-23T03:29:30.924Z,4.40
2018-12-23T03:31:59.442Z,3.40
2018-12-23T03:34:27.965Z,3.30
2018-12-23T03:36:56.534Z,3.53
2018-12-23T03:39:25.055Z,3.43
2018-12-23T03:41:53.844Z,4.37
2018-12-23T03:44:22.367Z,3.80
2018-12-23T03:46:50.874Z,3.20
2018-12-23T03:49:19.376Z,3.10
2018-12-23T03:51:47.914Z,3.93
2018-12-23T03:54:16.465Z,2.70
2018-12-23T03:56:45.032Z,3.50
2018-12-23T03:59:13.537Z,2.63
2018-12-23T04:01:42.133Z,2.40
2018-12-23T04:04:10.666Z,2.30
2018-12-23T04:06:39.181Z,2.27
2018-12-23T04:09:07.781Z,2.50
2018-12-23T04:11:36.332Z,2.20
2018-12-23T04:14:04.823Z,2.50
2018-12-23T04:16:33.398Z,2.10
2018-12-23T04:19:01.941Z,2.13
2018-12-23T04:21:30.423Z,1.87
2018-12-23T04:23:58.926Z,2.27
2018-12-23T04:26:27.467Z,2.20
2018-12-23T04:28:55.933Z,2.20
2018-12-23T04:31:24.466Z,1.80
2018-12-23T04:33:52.991Z,2.40
2018-12-23T04:36:21.502Z,1.87
2018-12-23T04:38:50.008Z,2.10
2018-12-23T04:41:18.556Z,2.20
2018-12-23T04:43:47.054Z,2.00
2018-12-23T04:46:15.542Z,2.40
2018-12-23T04:48:44.090Z,2.23
2018-12-23T04:51:12.574Z,2.50
2018-12-23T04:53:41.077Z,2.50
2018-12-23T04:56:09.590Z,2.50
2018-12-23T04:58:38.121Z,2.37
2018-12-23T05:01:06.617Z,1.90
2018-12-23T05:03:42.726Z,2.10
2018-12-23T05:06:05.801Z,2.10
2018-12-23T05:08:34.300Z,2.10
2018-12-23T05:11:02.862Z,2.10
2018-12-23T05:13:31.349Z,2.20
2018-12-23T05:15:59.914Z,2.30
2018-12-23T05:18:28.423Z,2.60
2018-12-23T05:20:56.931Z,2.57
2018-12-23T05:23:25.425Z,2.37
2018-12-23T05:25:53.996Z,2.40
2018-12-23T05:28:22.532Z,2.80
2018-12-23T05:30:51.152Z,3.33
2018-12-23T05:33:19.703Z,3.50
2018-12-23T05:35:48.162Z,3.33
2018-12-23T05:38:16.685Z,3.97
2018-12-23T05:40:45.249Z,3.43
2018-12-23T05:43:13.707Z,4.00
2018-12-23T05:45:42.283Z,3.80
2018-12-23T05:48:10.823Z,4.67
2018-12-23T05:50:39.494Z,4.20
2018-12-23T05:53:07.990Z,4.10
2018-12-23T05:55:35.463Z,4.17
2018-12-23T05:58:04.061Z,4.60
2018-12-23T06:00:32.527Z,5.20
2018-12-23T06:03:01.059Z,5.70
2018-12-23T06:05:29.538Z,5.90
2018-12-23T06:07:58.025Z,5.50
2018-12-23T06:10:26.553Z,5.20
2018-12-23T06:12:55.061Z,5.27
2018-12-23T06:15:23.558Z,5.30
2018-12-23T06:17:52.086Z,5.37
2018-12-23T06:20:20.623Z,5.70
2018-12-23T06:22:49.139Z,6.23
2018-12-23T06:25:17.678Z,7.10
2018-12-23T06:27:46.172Z,7.43
2018-12-23T06:30:14.673Z,7.37
2018-12-23T06:32:43.225Z,18.17
2018-12-23T06:35:11.746Z,12.17
2018-12-23T06:37:40.247Z,13.70
2018-12-23T06:40:08.833Z,12.60
2018-12-23T06:42:37.379Z,12.37
2018-12-23T06:45:06.312Z,10.47
2018-12-23T06:47:34.854Z,7.77
2018-12-23T06:50:03.493Z,9.57
2018-12-23T06:52:31.993Z,7.20
2018-12-23T06:55:00.577Z,8.50
2018-12-23T06:57:29.082Z,13.73
2018-12-23T06:59:57.740Z,10.47
2018-12-23T07:02:26.274Z,9.40
2018-12-23T07:04:54.751Z,7.83
2018-12-23T07:07:23.220Z,6.47
2018-12-23T07:09:51.764Z,7.17
2018-12-23T07:12:20.246Z,10.30
2018-12-23T07:14:48.752Z,9.57
2018-12-23T07:17:17.321Z,9.07
2018-12-23T07:19:45.927Z,11.50
2018-12-23T07:22:14.533Z,9.57
2018-12-23T07:24:43.105Z,10.50
2018-12-23T07:27:11.611Z,7.73
2018-12-23T07:29:40.077Z,12.60
2018-12-23T07:32:08.601Z,7.50
2018-12-23T07:34:37.249Z,5.63
2018-12-23T07:37:05.749Z,13.07
2018-12-23T07:39:34.335Z,9.20
2018-12-23T07:42:02.796Z,8.77
2018-12-23T07:44:31.331Z,10.00
2018-12-23T07:46:59.919Z,9.33
2018-12-23T07:49:28.419Z,6.80
2018-12-23T07:51:56.901Z,7.97
2018-12-23T07:54:25.535Z,6.83
2018-12-23T07:56:54.109Z,6.60
2018-12-23T07:59:22.609Z,6.57
2018-12-23T08:01:51.126Z,5.70
2018-12-23T08:04:19.935Z,6.33
2018-12-23T08:06:48.437Z,6.90
2018-12-23T08:09:16.952Z,6.37
2018-12-23T08:11:45.429Z,5.43
2018-12-23T08:14:13.925Z,5.53
2018-12-23T08:16:42.483Z,5.43
2018-12-23T08:19:11.101Z,5.30
2018-12-23T08:21:39.650Z,5.00
2018-12-23T08:24:08.184Z,5.30
2018-12-23T08:26:36.745Z,4.30
2018-12-23T08:29:05.290Z,4.83
2018-12-23T08:31:33.870Z,4.07
2018-12-23T08:34:02.359Z,4.40
2018-12-23T08:36:30.882Z,4.70
2018-12-23T08:38:59.438Z,6.10
2018-12-23T08:41:27.964Z,5.00
2018-12-23T08:43:56.424Z,6.63
2018-12-23T08:46:24.956Z,39.23
2018-12-23T08:48:53.466Z,39.97
2018-12-23T08:51:21.969Z,34.77
2018-12-23T08:53:50.545Z,17.90
2018-12-23T08:56:19.056Z,8.83
2018-12-23T08:58:47.607Z,5.97
2018-12-23T09:01:16.154Z,6.30
2018-12-23T09:03:44.777Z,5.93
2018-12-23T09:06:13.261Z,5.83
2018-12-23T09:08:41.861Z,6.20
2018-12-23T09:11:10.392Z,5.93
2018-12-23T09:13:38.885Z,5.00
2018-12-23T09:16:07.365Z,6.17
2018-12-23T09:18:35.833Z,5.40
2018-12-23T09:21:04.285Z,4.93
2018-12-23T09:23:32.845Z,5.20
2018-12-23T09:26:01.385Z,5.83
2018-12-23T09:28:29.878Z,6.23
2018-12-23T09:30:58.420Z,5.27
2018-12-23T09:33:26.910Z,4.33
2018-12-23T09:35:55.374Z,4.87
2018-12-23T09:38:23.881Z,4.50
2018-12-23T09:40:52.501Z,4.53
2018-12-23T09:43:21.000Z,4.90
2018-12-23T09:45:49.574Z,4.77
2018-12-23T09:48:18.069Z,4.90
2018-12-23T09:50:47.122Z,5.30
2018-12-23T09:53:15.633Z,4.90
2018-12-23T09:55:44.105Z,6.30
2018-12-23T09:58:12.682Z,4.43
2018-12-23T10:00:41.210Z,6.67
2018-12-23T10:03:09.716Z,6.93
2018-12-23T10:05:38.245Z,8.60
2018-12-23T10:08:10.257Z,12.30
2018-12-23T10:10:37.355Z,6.53
2018-12-23T10:13:06.196Z,6.90
2018-12-23T10:15:34.655Z,6.80
2018-12-23T10:18:03.276Z,16.27
2018-12-23T10:20:31.819Z,19.10
2018-12-23T10:23:00.352Z,16.70
2018-12-23T10:25:28.832Z,31.73
2018-12-23T10:27:57.397Z,14.90
2018-12-23T10:30:26.026Z,19.73
2018-12-23T10:32:54.514Z,27.27
2018-12-23T10:35:23.048Z,21.30
2018-12-23T10:37:51.549Z,13.43
2018-12-23T10:40:20.008Z,13.60
2018-12-23T10:42:48.660Z,23.60
2018-12-23T10:45:17.340Z,13.87
2018-12-23T10:47:45.924Z,13.20
2018-12-23T10:50:14.432Z,22.70
2018-12-23T10:52:44.467Z,16.23
2018-12-23T10:55:12.997Z,9.90
2018-12-23T10:57:41.603Z,12.40
2018-12-23T11:00:13.821Z,9.53
2018-12-23T11:02:42.266Z,13.33
2018-12-23T11:05:10.862Z,9.93
2018-12-23T11:07:39.338Z,13.30
2018-12-23T11:10:07.995Z,23.20
2018-12-23T11:12:36.507Z,10.03
2018-12-23T11:15:05.380Z,8.20
2018-12-23T11:17:33.860Z,7.90
2018-12-23T11:20:02.364Z,6.13
2018-12-23T11:22:30.987Z,8.10
2018-12-23T11:24:59.570Z,7.00
2018-12-23T11:27:28.094Z,6.00
2018-12-23T11:29:56.582Z,5.40
2018-12-23T11:32:25.108Z,6.00
2018-12-23T11:34:53.584Z,6.73
2018-12-23T11:37:22.128Z,5.63
2018-12-23T11:39:50.616Z,5.73
2018-12-23T11:42:19.118Z,4.97
2018-12-23T11:44:47.675Z,4.97
2018-12-23T11:47:16.256Z,5.40
2018-12-23T11:49:44.803Z,6.40
2018-12-23T11:52:13.281Z,4.33
2018-12-23T11:54:41.828Z,5.53
2018-12-23T11:57:10.325Z,5.10
2018-12-23T11:59:38.787Z,4.90
2018-12-23T12:02:15.048Z,4.80
2018-12-23T12:04:37.881Z,4.57
2018-12-23T12:07:06.462Z,5.73
2018-12-23T12:09:35.117Z,5.40
2018-12-23T12:12:04.170Z,4.70
2018-12-23T12:14:32.896Z,6.63
2018-12-23T12:17:01.563Z,9.57
2018-12-23T12:19:30.053Z,9.67
2018-12-23T12:21:58.584Z,14.27
2018-12-23T12:24:27.138Z,16.87
2018-12-23T12:26:55.632Z,14.73
2018-12-23T12:29:24.278Z,6.03
2018-12-23T12:31:52.812Z,8.03
2018-12-23T12:34:21.442Z,6.53
2018-12-23T12:36:49.978Z,5.50
2018-12-23T12:39:18.529Z,5.40
2018-12-23T12:41:47.120Z,6.07
2018-12-23T12:44:15.654Z,5.80
2018-12-23T12:46:44.232Z,6.40
2018-12-23T12:49:12.718Z,12.87
2018-12-23T12:51:41.323Z,6.00
2018-12-23T12:54:09.918Z,6.30
2018-12-23T12:56:38.529Z,5.40
2018-12-23T12:59:07.184Z,4.97
2018-12-23T13:01:35.806Z,17.95
2018-12-23T13:04:04.472Z,14.20
2018-12-23T13:06:35.164Z,14.17
2018-12-23T13:09:04.681Z,10.43
2018-12-23T13:11:33.193Z,6.33
2018-12-23T13:14:01.941Z,22.17
2018-12-23T13:16:30.533Z,11.00
2018-12-23T13:18:59.017Z,8.07
2018-12-23T13:21:27.569Z,5.93
2018-12-23T13:23:56.154Z,8.07
2018-12-23T13:26:25.487Z,10.83
2018-12-23T13:28:55.057Z,9.07
2018-12-23T13:31:23.803Z,7.37
2018-12-23T13:33:52.306Z,9.50
2018-12-23T13:36:20.827Z,8.70
2018-12-23T13:38:49.302Z,7.53
2018-12-23T13:42:26.608Z,7.93
2018-12-23T13:45:09.421Z,7.23
2018-12-23T13:49:00.602Z,7.67
2018-12-23T13:51:41.992Z,13.23
2018-12-23T13:54:21.152Z,9.30
2018-12-23T13:57:31.863Z,7.70
2018-12-23T14:00:29.197Z,9.13
2018-12-23T14:03:12.735Z,15.57
2018-12-23T14:06:03.872Z,9.77
2018-12-23T14:08:46.938Z,8.87
2018-12-23T14:11:28.106Z,7.67
2018-12-23T14:13:56.649Z,8.20
2018-12-23T14:16:25.148Z,9.37
2018-12-23T14:18:53.680Z,8.10
2018-12-23T14:21:22.260Z,7.27
2018-12-23T14:23:50.812Z,7.87
2018-12-23T14:26:19.354Z,8.40
2018-12-23T14:28:47.885Z,9.10
2018-12-23T14:31:16.387Z,8.07
2018-12-23T14:33:45.007Z,6.40
2018-12-23T14:36:13.507Z,5.63
2018-12-23T14:38:42.003Z,5.03
2018-12-23T14:41:10.666Z,4.97
2018-12-23T14:43:39.289Z,5.00
2018-12-23T14:46:07.766Z,4.10
2018-12-23T14:48:36.306Z,4.90
2018-12-23T14:51:04.890Z,6.50
2018-12-23T14:53:33.496Z,4.27
2018-12-23T14:56:02.168Z,4.80
2018-12-23T14:58:30.817Z,6.30
2018-12-23T15:00:59.358Z,4.70
2018-12-23T15:03:27.934Z,6.33
2018-12-23T15:05:56.427Z,4.47
2018-12-23T15:08:24.951Z,5.10
2018-12-23T15:10:54.133Z,5.23
2018-12-23T15:13:22.641Z,5.30
2018-12-23T15:15:51.125Z,5.50
2018-12-23T15:18:19.645Z,5.10
2018-12-23T15:20:49.009Z,5.40
2018-12-23T15:23:17.561Z,5.73
2018-12-23T15:25:46.076Z,5.63
2018-12-23T15:28:14.650Z,7.10
2018-12-23T15:30:43.133Z,7.67
2018-12-23T15:33:11.679Z,7.37
2018-12-23T15:35:41.690Z,10.30
2018-12-23T15:38:10.266Z,7.27
2018-12-23T15:40:39.061Z,8.40
2018-12-23T15:43:07.550Z,9.35
2018-12-23T15:45:36.064Z,9.73
2018-12-23T15:48:04.639Z,7.97
2018-12-23T15:50:33.128Z,4.70
2018-12-23T15:53:01.644Z,6.50
2018-12-23T15:55:30.232Z,6.97
2018-12-23T15:57:58.720Z,6.03
2018-12-23T16:00:27.207Z,4.83
2018-12-23T16:02:55.733Z,6.07
2018-12-23T16:05:24.252Z,6.10
2018-12-23T16:07:52.776Z,5.90
2018-12-23T16:10:21.323Z,6.53
2018-12-23T16:12:49.898Z,6.47
2018-12-23T16:15:18.453Z,7.27
2018-12-23T16:17:47.023Z,6.30
2018-12-23T16:20:16.535Z,6.87
2018-12-23T16:22:45.080Z,7.97
2018-12-23T16:25:13.742Z,7.10
2018-12-23T16:27:43.056Z,7.27
2018-12-23T16:30:11.921Z,15.50
2018-12-23T16:32:40.552Z,7.27
2018-12-23T16:35:09.173Z,7.17
2018-12-23T16:37:37.708Z,7.08
2018-12-23T16:40:09.507Z,7.03
2018-12-23T16:42:38.054Z,13.80
2018-12-23T16:45:06.759Z,8.77
2018-12-23T16:47:35.320Z,9.67
2018-12-23T16:50:04.216Z,7.90
2018-12-23T16:52:32.727Z,10.17
2018-12-23T16:55:01.358Z,9.60
2018-12-23T16:57:29.961Z,10.43
2018-12-23T16:59:58.447Z,11.33
2018-12-23T17:02:26.989Z,10.13
2018-12-23T17:04:55.645Z,7.87
2018-12-23T17:07:24.174Z,6.77
2018-12-23T17:09:52.936Z,6.53
2018-12-23T17:12:21.496Z,7.63
2018-12-23T17:14:50.064Z,8.57
2018-12-23T17:17:18.692Z,6.57
2018-12-23T17:19:47.224Z,10.57
2018-12-23T17:22:15.887Z,13.83
2018-12-23T17:24:44.537Z,14.87
2018-12-23T17:27:13.098Z,17.27
2018-12-23T17:29:41.714Z,16.53
2018-12-23T17:32:10.279Z,15.33
2018-12-23T17:34:38.810Z,25.13
2018-12-23T17:37:07.347Z,14.63
2018-12-23T17:39:35.903Z,9.37
2018-12-23T17:42:04.420Z,10.90
2018-12-23T17:44:39.641Z,10.87
2018-12-23T17:47:08.399Z,10.00
2018-12-23T17:49:37.082Z,8.00
2018-12-23T17:52:05.597Z,9.70
2018-12-23T17:54:34.130Z,8.83
2018-12-23T17:57:02.794Z,10.40
2018-12-23T17:59:31.398Z,8.17
2018-12-23T18:01:59.945Z,7.90
2018-12-23T18:04:28.658Z,9.53
2018-12-23T18:07:03.664Z,8.70
2018-12-23T18:09:27.796Z,7.50
2018-12-23T18:11:56.412Z,7.13
2018-12-23T18:14:25.073Z,6.60
2018-12-23T18:16:53.599Z,6.50
2018-12-23T18:19:22.173Z,6.73
2018-12-23T18:21:50.740Z,7.13
2018-12-23T18:24:19.814Z,6.77
2018-12-23T18:26:48.373Z,7.43
2018-12-23T18:29:16.922Z,6.57
2018-12-23T18:31:45.719Z,6.27
2018-12-23T18:34:14.272Z,7.20
2018-12-23T18:36:42.778Z,7.87
2018-12-23T18:39:11.326Z,10.05
2018-12-23T18:41:40.260Z,7.83
2018-12-23T18:44:09.538Z,7.20
2018-12-23T18:46:38.352Z,7.13
2018-12-23T18:49:06.873Z,7.13
2018-12-23T18:51:35.494Z,7.43
2018-12-23T18:54:04.033Z,7.23
2018-12-23T18:56:37.912Z,8.03
2018-12-23T18:59:06.686Z,11.00
2018-12-23T19:01:38.312Z,8.23
2018-12-23T19:04:07.265Z,8.10
2018-12-23T19:06:36.017Z,7.50
2018-12-23T19:09:11.003Z,8.97
2018-12-23T19:13:56.496Z,9.03
2018-12-23T19:16:35.541Z,8.27
2018-12-23T19:19:20.282Z,8.47
2018-12-23T19:34:08.236Z,13.83
2018-12-23T19:39:23.054Z,13.93
2018-12-23T19:45:11.988Z,10.37
2018-12-23T19:47:55.284Z,9.30
2018-12-23T19:50:51.112Z,13.20
2018-12-23T19:53:29.796Z,8.40
2018-12-23T20:00:39.192Z,8.80
2018-12-23T20:04:26.162Z,7.37
2018-12-23T20:07:29.263Z,7.00
2018-12-23T20:10:25.875Z,6.33
2018-12-23T20:13:33.731Z,5.90
2018-12-23T20:16:42.718Z,4.80
2018-12-23T20:19:46.617Z,5.03
2018-12-23T20:23:00.166Z,5.17
2018-12-23T20:26:19.575Z,5.73
2018-12-23T20:29:31.712Z,5.10
2018-12-23T20:32:20.140Z,6.50
2018-12-23T20:35:30.363Z,6.37
2018-12-23T20:38:39.267Z,7.27
2018-12-23T20:41:37.904Z,7.17
2018-12-23T20:44:19.036Z,6.93
2018-12-23T20:47:17.750Z,7.47
2018-12-23T20:50:25.152Z,5.77
2018-12-23T20:53:30.163Z,8.40
2018-12-23T20:56:30.833Z,8.40
2018-12-23T20:59:19.875Z,8.50
2018-12-23T21:02:32.991Z,9.93
2018-12-23T21:05:32.879Z,10.00
2018-12-23T21:08:28.835Z,8.00
2018-12-23T21:11:47.808Z,7.53
2018-12-23T21:14:55.754Z,7.57
2018-12-23T21:18:00.007Z,7.23
2018-12-23T21:21:15.748Z,8.13
2018-12-23T21:24:21.201Z,10.23
2018-12-23T21:27:12.003Z,8.00
2018-12-23T21:30:37.942Z,8.33
2018-12-23T21:33:44.519Z,6.00
2018-12-23T21:37:16.913Z,6.13
2018-12-23T21:40:46.178Z,5.97
2018-12-23T21:43:47.067Z,5.63
2018-12-23T21:46:57.723Z,5.10
2018-12-23T21:50:10.582Z,4.43
2018-12-23T21:53:14.399Z,4.47
2018-12-23T21:56:23.287Z,5.13
2018-12-23T21:59:30.391Z,4.70
2018-12-23T22:02:35.373Z,5.70
2018-12-23T22:05:23.875Z,6.00
2018-12-23T22:08:35.550Z,6.23
2018-12-23T22:11:41.761Z,5.80
2018-12-23T22:14:11.051Z,6.63
2018-12-23T22:16:40.323Z,5.57
2018-12-23T22:19:12.398Z,5.67
2018-12-23T22:21:41.661Z,7.27
2018-12-23T22:24:10.983Z,6.83
2018-12-23T22:26:42.043Z,6.70
2018-12-23T22:29:11.285Z,6.17
2018-12-23T22:31:40.550Z,5.33
2018-12-23T22:34:09.926Z,4.73
2018-12-23T22:36:39.194Z,6.03
2018-12-23T22:39:10.816Z,5.50
2018-12-23T22:41:41.450Z,5.33
2018-12-23T22:44:10.993Z,3.67
2018-12-23T22:46:40.262Z,3.90
2018-12-23T22:49:09.654Z,3.80
2018-12-23T22:51:39.297Z,3.97
2018-12-23T22:54:08.536Z,4.60
2018-12-23T22:56:37.956Z,5.07
2018-12-23T22:59:07.274Z,5.30
2018-12-23T23:01:39.892Z,5.13
2018-12-23T23:04:07.515Z,4.93
2018-12-23T23:06:36.823Z,5.00
2018-12-23T23:09:14.759Z,4.90
2018-12-23T23:11:49.799Z,4.47
2018-12-23T23:14:15.203Z,4.73
2018-12-23T23:16:44.526Z,4.63
2018-12-23T23:19:13.997Z,4.97
2018-12-23T23:21:43.315Z,5.20
2018-12-23T23:24:12.607Z,5.40
2018-12-23T23:26:41.898Z,4.80
2018-12-23T23:29:11.179Z,4.97
2018-12-23T23:31:40.521Z,5.20
2018-12-23T23:34:09.943Z,6.40
2018-12-23T23:36:39.171Z,5.40
2018-12-23T23:39:08.475Z,4.57
2018-12-23T23:41:37.715Z,5.43
2018-12-23T23:44:06.946Z,5.07
2018-12-23T23:46:36.225Z,4.90
2018-12-23T23:49:05.539Z,4.37
2018-12-23T23:51:34.925Z,4.47
2018-12-23T23:54:04.226Z,4.03
2018-12-23T23:56:33.556Z,4.40
2018-12-23T23:59:02.911Z,4.17
